NOAA/GLERL Met Station at Chicago, IL

Previous 5 days (top of hour only)
See also Previous 3 Hours (2 minute increments)
Jump down to Data
Switch to [English][Metric]
Zoom: Click and drag, Pan: shift-click and drag, Unzoom: double-click, Unzoom All




Note: Speed = mean wind during 2-minute period at top of hour,
Gust = max wind during 2-minute period at top of hour,
Peak = max wind during entire hour.
• See also 5-day windrose plot


NOAA/GLERL Met Station at Chicago, IL

Previous 5 days (top of hour only)
See also Previous 3 Hours (2 minute increments)
Jump up to Graphs
Switch to [English][Metric]
                  Wind  Wind  Wind   Air   Dew   Rel
                   Spd   Gst   Dir  Temp    Pt   Hum
YYYY-MM-DD   CST   kts   kts   deg     F     F     %
2017-02-23 12:00  13.4  14.0   354  38.8  38.3  97.9
2017-02-23 11:00   8.2   8.4    23  40.6  39.1  94.3
2017-02-23 10:00  12.8  13.2    21  41.4  39.1  91.4
2017-02-23 09:00   7.6   8.2     3  46.2  41.6  83.8
2017-02-23 08:00   5.1   5.2     2  48.0  43.6  84.4
2017-02-23 07:00  10.1  10.7   338  48.9  43.6  81.6
2017-02-23 06:00  12.6  14.8   318  51.6  45.0  78.0
2017-02-23 05:00  10.9  11.5   278  53.4  47.1  79.0
2017-02-23 04:00   9.5  10.3   270  54.9  48.7  79.4
2017-02-23 03:00  14.6  16.7   259  56.3  49.9  78.8
2017-02-23 02:00  17.1  20.6   249  58.1  50.2  74.6
2017-02-23 01:00  17.9  21.0   239  59.5  52.4  76.9
2017-02-23 00:00  24.1  31.5   243  60.6  53.2  76.3
2017-02-22 23:00  23.3  27.4   230  61.7  54.3  76.3
2017-02-22 22:00  27.6  34.4   217  62.6  55.3  76.7
2017-02-22 21:00  23.3  26.6   212  62.6  54.7  75.1
2017-02-22 20:00  26.6  30.1   209  63.3  54.8  73.3
2017-02-22 19:00  20.2  21.2   183  58.5  53.0  81.7
2017-02-22 18:00  20.4  21.2   184  62.2  55.4  78.0
2017-02-22 17:00  25.5  27.4   199  64.8  54.0  67.7
2017-02-22 16:00  22.9  24.1   193  62.8  53.4  71.1
2017-02-22 15:00  20.8  23.7   199  60.1  53.7  79.2
2017-02-22 14:00  20.4  22.2   206  58.5  53.6  83.6
2017-02-22 13:00  17.9  18.9   190  58.1  53.0  82.9
2017-02-22 12:00  17.1  17.7   199  56.5  52.7  86.9
2017-02-22 11:00  18.1  19.1   205  55.0  53.9  95.8
2017-02-22 10:00  18.1  19.8   211  54.0  53.9  99.8
2017-02-22 09:00   8.7   9.5   242  54.0  53.9  99.8
2017-02-22 08:00  19.8  21.6   214  53.4  53.4  99.8
2017-02-22 07:00  17.9  19.6   199  54.5  54.4  99.8
2017-02-22 06:00  15.2  17.5   204  54.0  53.9  99.6
2017-02-22 05:00  11.9  13.0   194  55.8  54.7  96.1
2017-02-22 04:00  11.1  12.2   191  56.3  55.1  95.6
2017-02-22 03:00  11.9  12.8   193  55.4  54.4  96.3
2017-02-22 02:00  13.6  14.2   192  55.9  54.3  94.3
2017-02-22 01:00  11.5  12.2   207  58.1  54.7  88.4
2017-02-22 00:00  12.1  12.6   194  57.4  54.6  90.2
2017-02-21 23:00  10.3  10.7   203  58.3  55.2  89.3
2017-02-21 22:00   7.0   7.4   186  54.5  54.4  99.8
2017-02-21 21:00  15.2  15.9   161  48.0  48.0  99.8
2017-02-21 20:00  11.9  12.6   167  44.2  44.2  99.8
2017-02-21 19:00   9.9  10.5   171  45.3  45.2  99.7
2017-02-21 18:00   6.6   7.0   178  56.7  52.9  87.0
2017-02-21 17:00   4.7   5.2   197  59.2  51.1  74.3
2017-02-21 16:00  11.9  13.8   260  63.5  52.9  68.0
2017-02-21 15:00   3.9   5.6   224  60.8  52.7  74.5
2017-02-21 14:00   3.9   4.3   222  61.2  54.3  78.0
2017-02-21 13:00   8.6  10.1   260  61.0  55.5  81.9
2017-02-21 12:00   8.6   9.7   216  59.4  55.4  86.5
2017-02-21 11:00   7.8   8.7   220  58.3  55.2  89.3
2017-02-21 10:00   2.7   3.3   201  57.0  54.2  90.2
2017-02-21 09:00   7.6   8.6   214  54.3  53.1  95.6
2017-02-21 08:00  12.4  13.0   194  54.9  53.8  96.0
2017-02-21 07:00  12.4  12.6   187  54.7  53.9  97.1
2017-02-21 06:00  10.7  11.1   184  53.8  52.9  96.7
2017-02-21 05:00  10.9  11.5   203  54.9  52.2  90.5
2017-02-21 04:00  13.0  13.8   203  57.7  49.5  73.7
2017-02-21 03:00  20.0  22.7   211  59.2  48.3  66.8
2017-02-21 02:00  18.9  20.0   197  58.8  47.7  66.2
2017-02-21 01:00  15.9  16.9   185  54.3  45.7  72.3
2017-02-21 00:00  17.9  18.7   182  55.4  45.8  69.9
2017-02-20 23:00  17.7  18.7   178  54.0  44.5  70.0
2017-02-20 22:00  21.0  22.0   165  53.1  43.4  69.3
2017-02-20 21:00  22.6  23.1   166  55.4  43.8  64.7
2017-02-20 20:00  22.4  23.7   157  50.9  41.1  68.9
2017-02-20 19:00  18.1  19.4   162  51.1  41.4  69.1
2017-02-20 18:00  19.1  20.0   155  50.4  40.8  69.3
2017-02-20 17:00  18.7  19.2   148  50.2  40.9  70.2
2017-02-20 16:00  20.4  21.0   146  51.4  41.6  68.7
2017-02-20 15:00  17.9  19.1   140  52.3  41.9  67.3
2017-02-20 14:00  20.4  21.4   152  58.6  44.7  59.4
2017-02-20 13:00  20.4  20.8   145  59.2  45.5  60.0
2017-02-20 12:00  15.6  16.5   157  52.7  44.7  73.9
2017-02-20 11:00  13.4  15.7   153  47.5  43.6  86.2
2017-02-20 10:00  16.9  17.7   145  44.1  43.0  96.0
2017-02-20 09:00  10.9  11.9   154  42.3  41.3  96.5
2017-02-20 08:00   8.2   8.4   142  42.3  41.0  95.3
2017-02-20 07:00   8.0   8.6   161  41.2  39.6  93.9
2017-02-20 06:00   9.3  10.1   158  40.1  37.5  90.3
2017-02-20 05:00  11.5  12.2   139  41.2  38.8  91.1
2017-02-20 04:00  15.7  15.9   125  46.9  41.6  81.5
2017-02-20 03:00  11.1  11.3   148  48.7  43.2  81.0
2017-02-20 02:00   8.0   8.9   153  46.8  40.1  77.5
2017-02-20 01:00   6.0   6.4   167  45.1  37.1  73.2
2017-02-20 00:00   6.4   7.2   167  43.2  35.2  73.3
2017-02-19 23:00   6.2   6.8   161  44.4  34.3  67.2
2017-02-19 22:00   4.7   4.9   144  43.5  32.3  64.3
2017-02-19 21:00   7.6   7.8   157  43.9  31.7  61.9
2017-02-19 20:00   7.0   7.6   145  44.2  32.8  63.7
2017-02-19 19:00   7.4   8.6   161  43.5  33.6  67.8
2017-02-19 18:00   7.0   7.6   172  43.5  33.5  67.5
2017-02-19 17:00   5.6   6.4   150  44.6  33.1  63.7
2017-02-19 16:00   3.3   3.7   143  47.8  32.9  55.8
2017-02-19 15:00   5.6   6.6    79  46.0  32.5  58.8
2017-02-19 14:00   7.4   7.6    83  49.3  32.0  51.0
2017-02-19 13:00   3.5   3.5   104  51.3  31.8  47.0
2017-02-19 12:00   1.0   1.4   137  55.9  31.4  38.9
2017-02-19 10:00   0.8   1.0   292  51.6  32.0  46.8
2017-02-19 09:00   3.3   3.5   298  51.4  32.4  47.7
2017-02-19 08:00   4.5   4.9   291  50.4  34.6  54.4
2017-02-19 07:00   8.7   8.7   279  50.0  38.3  63.8
2017-02-19 06:00   5.6   5.6   282  51.6  36.8  56.6
2017-02-19 05:00   2.9   3.3   226  50.0  37.7  62.2
2017-02-19 04:00   7.6   7.8   320  53.2  39.8  59.9
2017-02-19 03:00   7.6   7.8   319  52.0  40.2  63.8
2017-02-19 02:00   5.6   5.8   333  53.2  40.3  61.2
2017-02-19 01:00   6.6   6.8   333  53.2  39.3  58.8
2017-02-19 00:00   6.6   6.8   284  55.2  37.0  50.0
2017-02-18 23:00   3.5   3.7   255  54.0  34.4  47.2
2017-02-18 22:00   5.1   5.1   197  51.3  32.1  47.6
2017-02-18 21:00   4.9   5.2   167  50.7  32.8  49.9
2017-02-18 20:00   1.4   2.1   140  48.4  33.7  56.5
2017-02-18 19:00   1.2   1.6    94  49.3  34.1  55.4
2017-02-18 18:00   2.3   2.7    65  45.9  36.6  69.9